Time;durP1;ratioP1;P1;durP2;ratioP2;P2;SDS_P1;SDS_P2;PMS_P1;PMS_P2;Temp;Humidity;BMP_temperature;BMP_pressure;BME280_temperature;BME280_humidity;BME280_pressure;Samples;Min_cycle;Max_cycle;Signal;HPM_P1;HPM_P2
2022/10/31 00:00:48;;;;;;;3.50;3.20;;;24.50;69.20;;;;;;5067492;28;20552;-85
2022/10/31 00:03:17;;;;;;;6.00;4.20;;;24.50;69.30;;;;;;5062044;28;20480;-85
2022/10/31 00:05:47;;;;;;;4.67;4.13;;;24.50;69.30;;;;;;5073891;28;20446;-83
2022/10/31 00:08:15;;;;;;;3.37;3.17;;;24.50;69.30;;;;;;5070379;28;20490;-84
2022/10/31 00:10:45;;;;;;;4.10;3.77;;;24.50;69.30;;;;;;5073129;28;20430;-86
2022/10/31 00:13:14;;;;;;;4.67;4.20;;;24.40;69.30;;;;;;5073042;28;20805;-84
2022/10/31 00:15:42;;;;;;;3.50;3.27;;;24.50;69.30;;;;;;5072783;28;20889;-85
2022/10/31 00:18:12;;;;;;;3.63;3.43;;;24.40;69.20;;;;;;5072913;28;20834;-85
2022/10/31 00:20:40;;;;;;;4.47;4.07;;;24.40;69.30;;;;;;5073020;28;20800;-85
2022/10/31 00:23:10;;;;;;;4.30;3.90;;;24.40;69.30;;;;;;5073264;28;20447;-85
2022/10/31 00:25:39;;;;;;;3.93;3.63;;;24.40;69.30;;;;;;5073756;28;20443;-85
2022/10/31 00:28:10;;;;;;;3.83;3.53;;;24.40;69.20;;;;;;5073234;28;20429;-85
2022/10/31 00:30:39;;;;;;;3.40;3.20;;;24.40;69.30;;;;;;5073844;28;20445;-86
2022/10/31 00:33:07;;;;;;;4.50;4.10;;;24.40;69.20;;;;;;5072944;28;20443;-84
2022/10/31 00:35:36;;;;;;;3.83;3.50;;;24.40;69.20;;;;;;5071720;28;20478;-85
2022/10/31 00:38:04;;;;;;;4.07;3.70;;;24.40;69.20;;;;;;5072748;28;20453;-85
2022/10/31 00:40:32;;;;;;;4.33;3.67;;;24.40;69.20;;;;;;5073447;28;20439;-86
2022/10/31 00:43:01;;;;;;;3.93;3.63;;;24.40;69.10;;;;;;5072744;28;20461;-85
2022/10/31 00:45:30;;;;;;;3.97;3.67;;;24.40;69.10;;;;;;5072763;28;20835;-85
2022/10/31 00:47:58;;;;;;;4.33;3.93;;;24.40;69.20;;;;;;5053217;28;20467;-85
2022/10/31 00:50:27;;;;;;;4.30;4.00;;;24.40;69.20;;;;;;5082021;28;20983;-85
2022/10/31 00:52:57;;;;;;;3.90;3.60;;;24.40;69.10;;;;;;5072780;28;20493;-84
2022/10/31 00:55:25;;;;;;;3.93;3.67;;;24.40;69.20;;;;;;5071891;28;20494;-85
2022/10/31 00:57:54;;;;;;;3.93;3.63;;;24.40;69.10;;;;;;5071022;28;20512;-86
2022/10/31 01:00:22;;;;;;;4.67;3.90;;;24.40;69.10;;;;;;5068748;28;20569;-86
2022/10/31 01:02:50;;;;;;;3.17;2.97;;;24.40;69.10;;;;;;5051328;28;20456;-85
2022/10/31 01:05:21;;;;;;;5.33;3.60;;;24.40;69.10;;;;;;5067461;28;20434;-86
2022/10/31 01:07:50;;;;;;;4.10;3.70;;;24.30;69.10;;;;;;5071048;28;20499;-85
2022/10/31 01:10:19;;;;;;;4.60;3.30;;;24.30;69.10;;;;;;5072761;28;20439;-85
2022/10/31 01:12:49;;;;;;;3.73;3.53;;;24.30;69.10;;;;;;5072107;28;20959;-85
2022/10/31 01:15:20;;;;;;;3.90;3.60;;;24.30;69.00;;;;;;5071831;28;20470;-85
2022/10/31 01:17:49;;;;;;;3.93;3.63;;;24.30;69.00;;;;;;5067460;28;20588;-86
2022/10/31 01:20:18;;;;;;;4.30;3.90;;;24.30;69.00;;;;;;5070363;28;20819;-85
2022/10/31 01:22:46;;;;;;;4.40;4.00;;;24.30;69.00;;;;;;5070449;28;20469;-84
2022/10/31 01:25:14;;;;;;;4.83;4.40;;;24.30;69.00;;;;;;5071486;28;20874;-85
2022/10/31 01:27:44;;;;;;;3.97;3.67;;;24.30;69.00;;;;;;5072785;28;20479;-84
2022/10/31 01:30:13;;;;;;;3.63;3.33;;;24.30;69.00;;;;;;5072581;28;20460;-84
2022/10/31 01:32:41;;;;;;;3.70;3.40;;;24.30;69.00;;;;;;5072787;28;20456;-85
2022/10/31 01:35:09;;;;;;;3.73;3.50;;;24.30;69.00;;;;;;5071513;28;20573;-85
2022/10/31 01:37:37;;;;;;;4.30;4.00;;;24.30;69.00;;;;;;5072360;28;20792;-86
2022/10/31 01:40:07;;;;;;;3.70;3.40;;;24.30;69.00;;;;;;5072958;28;20444;-84
2022/10/31 01:42:35;;;;;;;3.47;3.27;;;24.30;69.00;;;;;;5071329;28;20474;-85
2022/10/31 01:45:10;;;;;;;3.67;3.37;;;24.30;69.00;;;;;;5071126;28;20461;-85
2022/10/31 01:47:43;;;;;;;4.60;4.20;;;24.20;69.00;;;;;;5054183;28;20902;-85
2022/10/31 01:50:27;;;;;;;3.70;3.50;;;24.20;69.00;;;;;;5056276;28;20912;-85
2022/10/31 01:52:56;;;;;;;3.57;3.30;;;24.20;69.00;;;;;;5071772;28;20568;-85
2022/10/31 01:55:27;;;;;;;4.40;4.10;;;24.20;69.00;;;;;;5056588;28;20474;-86
2022/10/31 01:58:02;;;;;;;3.67;3.37;;;24.20;69.00;;;;;;5055008;28;20458;-85
2022/10/31 02:00:32;;;;;;;3.63;3.43;;;24.20;69.00;;;;;;5056537;28;20436;-85
2022/10/31 02:03:01;;;;;;;4.33;3.93;;;24.20;69.00;;;;;;5059692;28;20460;-84
2022/10/31 02:05:31;;;;;;;4.13;3.83;;;24.20;69.00;;;;;;5076050;28;20448;-86
2022/10/31 02:08:03;;;;;;;3.83;3.53;;;24.20;69.00;;;;;;5074746;28;20556;-85
2022/10/31 02:10:33;;;;;;;3.57;3.27;;;24.20;69.00;;;;;;5075021;28;21382;-86
2022/10/31 02:13:04;;;;;;;4.00;3.70;;;24.20;69.00;;;;;;5067670;28;20473;-86
2022/10/31 02:15:39;;;;;;;5.00;4.20;;;24.20;69.00;;;;;;5071809;28;20961;-85
2022/10/31 02:18:08;;;;;;;4.37;3.97;;;24.20;69.00;;;;;;5075115;28;20828;-85
2022/10/31 02:20:43;;;;;;;3.87;3.57;;;24.20;69.00;;;;;;5055139;28;20562;-85
2022/10/31 02:23:49;;;;;;;4.10;3.80;;;24.20;69.00;;;;;;5055805;28;20439;-86
2022/10/31 02:27:06;;;;;;;3.40;3.20;;;24.10;68.90;;;;;;5071588;28;20978;-85
2022/10/31 02:30:05;;;;;;;3.70;3.47;;;24.10;68.90;;;;;;5074413;28;20453;-85
2022/10/31 02:32:52;;;;;;;4.80;4.40;;;24.10;69.00;;;;;;5073896;28;20813;-86
2022/10/31 02:35:34;;;;;;;3.80;3.37;;;24.10;68.90;;;;;;5075492;28;20534;-85
2022/10/31 02:38:15;;;;;;;3.47;3.27;;;24.10;68.90;;;;;;5082410;28;20664;-85
2022/10/31 02:40:51;;;;;;;3.17;2.97;;;24.10;68.90;;;;;;5088161;28;20486;-84
2022/10/31 02:43:34;;;;;;;3.20;3.00;;;24.10;68.80;;;;;;5074476;28;20464;-85
2022/10/31 02:46:09;;;;;;;3.70;3.50;;;24.10;68.80;;;;;;5072714;28;20489;-84
2022/10/31 02:48:42;;;;;;;3.40;3.13;;;24.10;68.80;;;;;;5073662;28;20505;-85
2022/10/31 02:51:12;;;;;;;3.93;3.63;;;24.10;68.80;;;;;;5073074;28;20489;-85
2022/10/31 02:53:40;;;;;;;4.17;3.83;;;24.10;68.80;;;;;;5074826;28;20868;-85
2022/10/31 02:56:13;;;;;;;3.60;3.40;;;24.10;68.80;;;;;;5076043;28;20503;-85
2022/10/31 02:58:46;;;;;;;3.60;3.40;;;24.10;68.80;;;;;;5074481;28;20548;-85
2022/10/31 03:01:37;;;;;;;3.80;3.40;;;24.10;68.80;;;;;;5073725;28;20526;-85
2022/10/31 03:04:30;;;;;;;3.73;3.53;;;24.10;68.80;;;;;;5074016;28;20619;-86
2022/10/31 03:07:04;;;;;;;3.80;3.50;;;24.10;68.80;;;;;;5073974;28;20992;-85
2022/10/31 03:09:38;;;;;;;3.87;3.57;;;24.10;68.80;;;;;;5073705;28;20498;-85
2022/10/31 03:12:11;;;;;;;3.17;2.97;;;24.00;68.70;;;;;;5073874;28;20469;-85
2022/10/31 03:14:44;;;;;;;3.10;2.90;;;24.00;68.80;;;;;;5073585;28;20525;-85
2022/10/31 03:17:19;;;;;;;3.80;3.50;;;24.00;68.70;;;;;;5073161;28;20487;-85
2022/10/31 03:19:53;;;;;;;3.93;3.63;;;24.00;68.70;;;;;;5074930;28;20551;-85
2022/10/31 03:22:24;;;;;;;3.23;3.00;;;24.00;68.70;;;;;;5073518;28;20493;-85
2022/10/31 03:24:54;;;;;;;4.70;3.33;;;24.00;68.70;;;;;;5074879;28;20923;-85
2022/10/31 03:27:25;;;;;;;3.30;3.10;;;24.00;68.70;;;;;;5073479;28;20446;-85
2022/10/31 03:29:56;;;;;;;3.60;3.40;;;24.00;68.70;;;;;;5073509;28;20461;-85
2022/10/31 03:32:29;;;;;;;3.97;3.67;;;24.00;68.70;;;;;;5072698;28;20456;-85
2022/10/31 03:35:01;;;;;;;3.53;3.23;;;24.00;68.70;;;;;;5074689;28;20480;-85
2022/10/31 03:37:33;;;;;;;3.23;3.03;;;24.00;68.70;;;;;;5072838;28;20479;-85
2022/10/31 03:40:05;;;;;;;3.80;3.50;;;24.00;68.60;;;;;;5073036;28;20466;-85
2022/10/31 03:42:38;;;;;;;3.30;3.07;;;24.00;68.70;;;;;;5073160;28;21013;-85
2022/10/31 03:45:11;;;;;;;3.60;3.30;;;24.00;68.70;;;;;;5072687;28;20455;-85
2022/10/31 03:47:44;;;;;;;3.20;3.00;;;24.00;68.70;;;;;;5072433;28;20859;-85
2022/10/31 03:50:16;;;;;;;3.03;2.83;;;24.00;68.60;;;;;;5071760;28;20972;-84
2022/10/31 03:52:50;;;;;;;3.10;2.90;;;24.00;68.60;;;;;;5072501;28;20472;-85
2022/10/31 03:55:24;;;;;;;3.77;3.47;;;24.00;68.60;;;;;;5069801;28;20446;-85
2022/10/31 03:57:58;;;;;;;3.67;3.40;;;23.90;68.60;;;;;;5054364;28;20480;-85
2022/10/31 04:00:27;;;;;;;3.53;3.30;;;23.90;68.60;;;;;;5056099;28;20529;-85
2022/10/31 04:03:02;;;;;;;3.33;3.13;;;23.90;68.60;;;;;;5072787;28;20453;-85
2022/10/31 04:05:35;;;;;;;3.47;3.23;;;23.90;68.60;;;;;;5072782;28;21122;-85
2022/10/31 04:08:08;;;;;;;3.30;3.10;;;23.90;68.50;;;;;;5072494;28;20511;-85
2022/10/31 04:10:38;;;;;;;3.20;3.00;;;23.90;68.60;;;;;;5072517;28;20454;-84
2022/10/31 04:13:10;;;;;;;3.00;2.80;;;23.90;68.50;;;;;;5072585;28;20482;-85
2022/10/31 04:15:46;;;;;;;3.40;3.17;;;23.90;68.50;;;;;;5070914;28;20455;-85
2022/10/31 04:18:15;;;;;;;3.10;2.90;;;23.90;68.50;;;;;;5072407;28;20489;-85
2022/10/31 04:20:45;;;;;;;3.03;2.83;;;23.90;68.60;;;;;;5072274;28;20480;-85
2022/10/31 04:23:20;;;;;;;3.53;3.23;;;23.90;68.50;;;;;;5072326;28;20553;-85
2022/10/31 04:25:49;;;;;;;3.40;3.20;;;23.90;68.50;;;;;;5072746;28;20449;-85
2022/10/31 04:28:18;;;;;;;3.03;2.83;;;23.90;68.50;;;;;;5072463;28;20460;-84
2022/10/31 04:30:52;;;;;;;3.50;3.30;;;23.90;68.60;;;;;;5073205;28;20443;-85
2022/10/31 04:33:20;;;;;;;3.23;3.03;;;23.90;68.50;;;;;;5073385;28;20793;-85
2022/10/31 04:35:49;;;;;;;3.70;3.40;;;23.90;68.50;;;;;;5073112;28;20542;-85
2022/10/31 04:38:18;;;;;;;3.57;3.20;;;23.80;68.50;;;;;;5073076;28;20539;-85
2022/10/31 04:40:47;;;;;;;3.87;3.27;;;23.80;68.40;;;;;;5064227;28;20463;-84
2022/10/31 04:43:35;;;;;;;3.17;2.90;;;23.80;68.50;;;;;;5061843;28;20493;-84
2022/10/31 04:46:04;;;;;;;3.50;3.20;;;23.80;68.50;;;;;;5071698;28;20447;-85
2022/10/31 04:48:32;;;;;;;3.07;2.87;;;23.80;68.50;;;;;;5071480;28;20448;-85
2022/10/31 04:51:02;;;;;;;2.93;2.73;;;23.80;68.50;;;;;;5057697;28;20451;-85
2022/10/31 04:53:30;;;;;;;3.90;3.17;;;23.80;68.50;;;;;;5070994;28;20900;-85
2022/10/31 04:56:34;;;;;;;3.50;3.20;;;23.80;68.50;;;;;;5047598;28;20476;-85
2022/10/31 04:59:09;;;;;;;3.83;3.53;;;23.80;68.50;;;;;;5071703;28;20939;-85
2022/10/31 05:01:48;;;;;;;3.43;3.23;;;23.80;68.50;;;;;;5070991;28;20557;-85
2022/10/31 05:04:21;;;;;;;3.43;3.23;;;23.80;68.40;;;;;;5070210;28;20469;-85
2022/10/31 05:06:50;;;;;;;2.83;2.63;;;23.80;68.40;;;;;;5071941;28;20456;-85
2022/10/31 05:09:19;;;;;;;3.37;3.17;;;23.80;68.50;;;;;;5071520;28;20491;-86
2022/10/31 05:11:47;;;;;;;3.40;3.10;;;23.80;68.50;;;;;;5071076;28;20453;-85
2022/10/31 05:14:41;;;;;;;3.40;3.10;;;23.80;68.50;;;;;;5071685;28;20465;-85
2022/10/31 05:17:33;;;;;;;3.37;3.13;;;23.80;68.50;;;;;;5057191;28;20492;-85
2022/10/31 05:20:24;;;;;;;3.13;2.83;;;23.80;68.60;;;;;;5062751;28;20783;-84
2022/10/31 05:23:12;;;;;;;4.00;2.73;;;23.80;68.50;;;;;;5069837;28;20526;-84
2022/10/31 05:25:42;;;;;;;3.63;3.33;;;23.70;68.50;;;;;;5074724;28;20487;-85
2022/10/31 05:28:10;;;;;;;3.00;2.80;;;23.70;68.60;;;;;;5074201;28;21123;-86
2022/10/31 05:30:39;;;;;;;2.93;2.73;;;23.70;68.50;;;;;;5058451;28;21320;-85
2022/10/31 05:33:11;;;;;;;3.47;3.27;;;23.70;68.60;;;;;;5076255;28;20469;-85
2022/10/31 05:36:05;;;;;;;2.80;2.60;;;23.70;68.50;;;;;;5064618;28;20463;-85
2022/10/31 05:38:58;;;;;;;3.27;3.07;;;23.70;68.50;;;;;;5050918;28;20859;-85
2022/10/31 05:41:34;;;;;;;3.40;3.20;;;23.70;68.50;;;;;;5054862;28;20458;-85
2022/10/31 05:44:10;;;;;;;2.97;2.80;;;23.70;68.50;;;;;;5058226;28;21266;-84
2022/10/31 05:46:50;;;;;;;3.50;3.30;;;23.70;68.50;;;;;;5061812;28;20476;-85
2022/10/31 05:49:37;;;;;;;3.47;3.27;;;23.70;68.50;;;;;;5061331;28;20448;-85
2022/10/31 05:52:25;;;;;;;2.73;2.53;;;23.70;68.50;;;;;;5060931;28;20460;-85
2022/10/31 05:55:04;;;;;;;2.93;2.73;;;23.70;68.50;;;;;;5058095;28;20469;-85
2022/10/31 05:57:33;;;;;;;3.03;2.83;;;23.70;68.50;;;;;;5079406;28;20836;-85
2022/10/31 06:00:02;;;;;;;3.07;2.87;;;23.70;68.50;;;;;;5068875;28;21093;-85
2022/10/31 06:02:35;;;;;;;3.30;3.10;;;23.70;68.50;;;;;;5070666;28;20464;-85
2022/10/31 06:05:35;;;;;;;3.60;3.40;;;23.70;68.50;;;;;;5054231;28;20454;-85
2022/10/31 06:08:04;;;;;;;3.70;3.40;;;23.70;68.50;;;;;;5068135;28;20540;-85
2022/10/31 06:10:33;;;;;;;3.20;3.00;;;23.60;68.50;;;;;;5065660;28;20550;-85
2022/10/31 06:13:02;;;;;;;3.03;2.87;;;23.70;68.40;;;;;;5079362;28;20476;-84
2022/10/31 06:15:45;;;;;;;3.03;2.83;;;23.70;68.40;;;;;;5068712;28;20517;-85
2022/10/31 06:18:13;;;;;;;2.93;2.77;;;23.70;68.40;;;;;;5068792;28;20589;-86
2022/10/31 06:20:48;;;;;;;2.87;2.67;;;23.60;68.50;;;;;;5070525;28;20491;-84
2022/10/31 06:23:16;;;;;;;3.10;2.90;;;23.60;68.50;;;;;;5058075;28;20813;-86
2022/10/31 06:25:50;;;;;;;2.80;2.60;;;23.60;68.40;;;;;;5065588;28;20555;-85
2022/10/31 06:28:19;;;;;;;3.27;3.07;;;23.60;68.40;;;;;;5067250;28;20456;-85
2022/10/31 06:30:54;;;;;;;3.13;2.93;;;23.60;68.40;;;;;;5069275;28;20472;-85
2022/10/31 06:33:23;;;;;;;3.57;3.27;;;23.60;68.40;;;;;;5066919;28;20523;-85
2022/10/31 06:36:00;;;;;;;3.30;3.10;;;23.60;68.40;;;;;;5071479;28;20475;-85
2022/10/31 06:38:29;;;;;;;2.90;2.70;;;23.60;68.40;;;;;;5073416;28;20475;-85
2022/10/31 06:41:03;;;;;;;3.10;2.90;;;23.60;68.30;;;;;;5067240;28;20463;-84
2022/10/31 06:43:39;;;;;;;3.00;2.80;;;23.60;68.30;;;;;;5067638;28;20472;-85
2022/10/31 06:46:27;;;;;;;2.87;2.67;;;23.60;68.30;;;;;;5065920;28;20464;-85
2022/10/31 06:49:13;;;;;;;3.00;2.80;;;23.60;68.30;;;;;;5075130;28;20478;-85
2022/10/31 06:51:48;;;;;;;3.10;2.90;;;23.60;68.30;;;;;;5065249;28;20458;-85
2022/10/31 06:54:17;;;;;;;3.27;2.97;;;23.60;68.20;;;;;;5063277;28;20508;-86
2022/10/31 06:56:48;;;;;;;3.00;2.80;;;23.60;68.10;;;;;;5065124;28;20468;-85
2022/10/31 06:59:17;;;;;;;2.60;2.40;;;23.60;68.20;;;;;;5063859;28;20544;-84
2022/10/31 07:02:04;;;;;;;3.17;2.97;;;23.60;68.10;;;;;;5064620;28;20957;-85
2022/10/31 07:04:34;;;;;;;3.33;3.03;;;23.60;68.20;;;;;;5063744;28;20548;-84
2022/10/31 07:07:02;;;;;;;2.80;2.60;;;23.60;68.10;;;;;;5063517;28;20512;-85
2022/10/31 07:09:31;;;;;;;2.87;2.67;;;23.60;68.10;;;;;;5062012;28;20460;-84
2022/10/31 07:12:04;;;;;;;3.07;2.87;;;23.60;68.00;;;;;;5065207;28;20525;-85
2022/10/31 07:14:36;;;;;;;3.03;2.83;;;23.60;68.00;;;;;;5084446;28;20469;-85
2022/10/31 07:17:04;;;;;;;3.20;3.00;;;23.60;68.00;;;;;;5065396;28;20470;-85
2022/10/31 07:19:37;;;;;;;3.03;2.83;;;23.60;68.00;;;;;;5060342;28;20851;-85
2022/10/31 07:22:05;;;;;;;2.87;2.67;;;23.60;67.90;;;;;;5069375;28;20455;-85
2022/10/31 07:24:34;;;;;;;2.87;2.67;;;23.60;67.80;;;;;;5066720;28;20977;-83
2022/10/31 07:27:18;;;;;;;3.00;2.80;;;23.60;67.80;;;;;;5074971;28;20800;-85
2022/10/31 07:29:48;;;;;;;3.27;3.07;;;23.60;67.80;;;;;;5074754;28;20460;-84
2022/10/31 07:32:17;;;;;;;3.60;3.30;;;23.60;67.90;;;;;;5063134;28;20557;-83
2022/10/31 07:34:53;;;;;;;3.70;2.70;;;23.70;68.10;;;;;;5069009;28;20471;-84
2022/10/31 07:37:23;;;;;;;3.20;3.00;;;23.70;68.10;;;;;;5063577;28;20457;-82
2022/10/31 07:39:52;;;;;;;3.17;2.90;;;23.70;67.50;;;;;;5079897;28;20845;-85
2022/10/31 07:42:22;;;;;;;2.93;2.73;;;23.70;67.60;;;;;;5070076;28;20472;-84
2022/10/31 07:44:51;;;;;;;3.20;2.97;;;23.70;67.50;;;;;;5067517;28;20504;-84
2022/10/31 07:47:54;;;;;;;3.03;2.83;;;23.70;67.40;;;;;;5071772;28;20458;-84
2022/10/31 07:50:40;;;;;;;3.20;2.83;;;23.70;67.40;;;;;;5063162;28;20523;-84
2022/10/31 07:53:31;;;;;;;4.10;3.03;;;23.70;67.40;;;;;;5062768;28;20485;-84
2022/10/31 07:56:10;;;;;;;2.87;2.67;;;23.70;67.40;;;;;;5061116;28;20896;-83
2022/10/31 07:58:39;;;;;;;4.03;3.43;;;23.70;67.30;;;;;;5060747;28;20464;-84
2022/10/31 08:01:07;;;;;;;3.63;3.33;;;23.70;67.20;;;;;;5060617;28;20453;-82
2022/10/31 08:03:45;;;;;;;3.53;3.33;;;23.70;67.30;;;;;;5073854;28;20872;-85
2022/10/31 08:06:34;;;;;;;3.30;3.10;;;23.70;66.90;;;;;;5063137;28;20448;-85
2022/10/31 08:09:19;;;;;;;3.00;2.80;;;23.70;67.30;;;;;;5058472;28;20466;-84
2022/10/31 08:11:47;;;;;;;3.27;2.97;;;23.60;67.50;;;;;;5077827;28;20793;-85
2022/10/31 08:14:18;;;;;;;3.27;3.07;;;23.60;67.60;;;;;;5059568;28;20982;-85
2022/10/31 08:16:46;;;;;;;3.27;3.07;;;23.70;67.30;;;;;;5081135;28;20497;-85
2022/10/31 08:19:15;;;;;;;6.90;3.13;;;23.70;67.20;;;;;;5074188;28;20446;-85
2022/10/31 08:21:43;;;;;;;7.37;3.20;;;23.70;67.70;;;;;;5064091;28;20728;-87
2022/10/31 08:24:12;;;;;;;3.60;3.30;;;23.70;68.00;;;;;;5065761;28;20476;-85
2022/10/31 08:26:41;;;;;;;3.00;2.80;;;23.70;68.20;;;;;;5064471;28;20610;-84
2022/10/31 08:29:11;;;;;;;3.10;2.90;;;23.80;68.30;;;;;;5062155;28;20545;-86
2022/10/31 08:31:42;;;;;;;3.17;2.80;;;23.80;68.30;;;;;;5079333;28;20476;-86
2022/10/31 08:34:28;;;;;;;4.70;4.07;;;23.80;68.30;;;;;;5065553;28;20451;-93
2022/10/31 08:37:19;;;;;;;2.67;2.40;;;23.90;68.30;;;;;;5069284;28;20925;-84
2022/10/31 08:39:52;;;;;;;3.57;3.27;;;23.90;68.40;;;;;;5081141;28;20891;-84
2022/10/31 08:42:21;;;;;;;3.20;3.00;;;23.90;68.50;;;;;;5071745;28;20546;-86
2022/10/31 08:44:49;;;;;;;4.93;3.70;;;24.00;68.50;;;;;;5071920;28;20488;-84
2022/10/31 08:47:22;;;;;;;3.23;2.90;;;24.00;68.50;;;;;;5063837;28;20467;-84
2022/10/31 08:49:50;;;;;;;2.67;2.50;;;24.00;68.50;;;;;;5065111;28;20955;-85
2022/10/31 08:52:18;;;;;;;3.10;2.90;;;24.10;68.50;;;;;;5070594;28;20462;-86
2022/10/31 08:54:48;;;;;;;3.47;3.17;;;24.10;68.50;;;;;;5079650;28;20489;-87
2022/10/31 08:57:55;;;;;;;3.50;3.20;;;24.10;68.50;;;;;;5053324;28;20447;-87
2022/10/31 09:00:25;;;;;;;2.93;2.73;;;24.10;68.60;;;;;;5064587;28;20564;-86
2022/10/31 09:03:07;;;;;;;5.50;2.70;;;24.20;68.60;;;;;;5063904;28;20538;-84
2022/10/31 09:05:35;;;;;;;3.17;2.97;;;24.20;68.60;;;;;;5063351;28;20457;-87
2022/10/31 09:08:06;;;;;;;3.13;2.83;;;24.20;68.60;;;;;;5068326;28;20469;-85
2022/10/31 09:10:43;;;;;;;3.50;3.30;;;24.20;68.60;;;;;;5061660;28;20473;-85
2022/10/31 09:13:13;;;;;;;3.10;2.83;;;24.30;68.60;;;;;;5065979;28;21015;-84
2022/10/31 09:16:00;;;;;;;3.00;2.80;;;24.30;68.60;;;;;;5058917;28;20487;-84
2022/10/31 09:18:31;;;;;;;3.43;3.13;;;24.40;68.60;;;;;;5065900;28;20480;-84
2022/10/31 09:21:01;;;;;;;3.60;3.30;;;24.40;68.50;;;;;;5062660;28;20555;-82
2022/10/31 09:23:31;;;;;;;2.63;2.53;;;24.40;68.50;;;;;;5066925;28;20459;-83
2022/10/31 09:26:02;;;;;;;3.20;3.00;;;24.40;68.60;;;;;;5056866;28;20514;-84
2022/10/31 09:28:34;;;;;;;4.00;3.70;;;24.40;68.30;;;;;;5059011;28;21019;-85
2022/10/31 09:31:10;;;;;;;4.77;4.27;;;24.40;67.80;;;;;;5063258;28;20465;-86
2022/10/31 09:34:05;;;;;;;3.63;3.33;;;24.40;67.30;;;;;;5066618;28;20458;-86
2022/10/31 09:36:37;;;;;;;4.40;4.00;;;24.40;66.90;;;;;;5067201;28;20455;-86
2022/10/31 09:39:13;;;;;;;10.17;4.20;;;24.40;66.70;;;;;;5064347;28;20517;-88
2022/10/31 09:42:04;;;;;;;5.33;4.10;;;24.40;66.70;;;;;;5059182;28;20552;-86
2022/10/31 09:44:46;;;;;;;9.00;4.13;;;24.40;66.90;;;;;;5083034;28;20853;-85
2022/10/31 09:47:36;;;;;;;5.23;4.57;;;24.40;67.00;;;;;;5065960;28;21061;-86
2022/10/31 09:50:42;;;;;;;8.20;3.90;;;24.40;67.20;;;;;;5044091;28;20481;-86
2022/10/31 09:53:40;;;;;;;5.70;3.83;;;24.40;67.30;;;;;;5060295;28;20479;-89
2022/10/31 09:56:14;;;;;;;4.30;3.90;;;24.50;67.50;;;;;;5067720;28;20462;-87
2022/10/31 09:58:46;;;;;;;4.45;4.05;;;24.50;67.50;;;;;;5080832;28;20458;-91
2022/10/31 10:01:39;;;;;;;7.90;4.00;;;24.50;67.60;;;;;;5070614;28;20586;-88
2022/10/31 10:04:29;;;;;;;4.10;3.70;;;24.60;67.50;;;;;;5062737;28;20513;-87
2022/10/31 10:07:26;;;;;;;5.53;4.73;;;24.60;67.50;;;;;;5081652;28;20465;-88
2022/10/31 10:10:15;;;;;;;4.40;3.87;;;24.60;67.60;;;;;;5072038;28;20453;-89
2022/10/31 10:13:12;;;;;;;6.23;3.87;;;24.70;67.60;;;;;;5064288;28;20461;-90
2022/10/31 10:16:01;;;;;;;3.97;3.67;;;24.70;67.60;;;;;;5077276;28;20492;-90
2022/10/31 10:18:44;;;;;;;3.50;3.30;;;24.70;67.70;;;;;;5077298;28;20495;-87
2022/10/31 10:21:23;;;;;;;3.40;3.17;;;24.70;67.60;;;;;;5081895;28;20467;-85
2022/10/31 10:24:03;;;;;;;5.07;4.53;;;24.70;67.60;;;;;;5069484;28;20460;-87
2022/10/31 10:26:36;;;;;;;3.60;3.30;;;24.80;67.70;;;;;;5065846;28;20473;-86
2022/10/31 10:29:21;;;;;;;4.20;3.60;;;24.80;67.70;;;;;;5076010;28;21017;-90
2022/10/31 10:31:52;;;;;;;3.87;3.53;;;24.80;67.70;;;;;;5113031;22;21110;-79
2022/10/31 10:34:27;;;;;;;6.03;3.90;;;24.80;67.60;;;;;;5053260;28;20467;-82
2022/10/31 10:36:59;;;;;;;3.53;3.23;;;24.90;67.60;;;;;;5053672;28;20552;-82
2022/10/31 10:39:36;;;;;;;4.00;3.57;;;24.90;67.60;;;;;;5060672;28;20479;-74
2022/10/31 10:47:45;;;;;;;11.60;8.73;;;24.90;66.80;;;;;;5051922;28;20501;-84
2022/10/31 10:50:18;;;;;;;9.13;7.90;;;24.80;65.80;;;;;;5051939;28;20552;-83
2022/10/31 10:52:52;;;;;;;8.40;7.60;;;24.80;65.70;;;;;;5050453;28;20463;-82
2022/10/31 10:55:33;;;;;;;7.10;6.50;;;24.90;65.90;;;;;;5053415;28;20442;-82
2022/10/31 10:58:04;;;;;;;7.63;6.93;;;24.90;66.00;;;;;;5054172;28;21003;-79
2022/10/31 11:00:36;;;;;;;10.00;5.80;;;25.00;66.00;;;;;;5052486;28;20576;-81
2022/10/31 11:03:05;;;;;;;10.20;5.97;;;25.00;66.10;;;;;;5052447;28;20452;-84
2022/10/31 11:05:38;;;;;;;8.93;6.10;;;25.00;66.20;;;;;;5053277;28;20950;-78
2022/10/31 11:08:07;;;;;;;6.67;6.10;;;25.10;66.30;;;;;;5054960;28;20492;-78
2022/10/31 11:10:37;;;;;;;5.87;5.30;;;25.10;66.40;;;;;;5054088;28;20462;-82
2022/10/31 11:13:18;;;;;;;6.07;5.20;;;25.20;66.30;;;;;;5049601;28;20457;-68
2022/10/31 11:15:56;;;;;;;7.47;5.00;;;25.30;66.20;;;;;;5050775;28;20486;-79
2022/10/31 11:18:26;;;;;;;5.90;5.37;;;25.30;66.10;;;;;;5054365;28;20477;-88
2022/10/31 11:20:56;;;;;;;6.13;5.00;;;25.40;65.90;;;;;;5054853;28;20510;-91
2022/10/31 11:23:26;;;;;;;8.83;5.50;;;25.40;65.90;;;;;;5055409;28;20451;-90
2022/10/31 11:25:59;;;;;;;8.50;5.60;;;25.50;65.70;;;;;;5052215;28;20454;-91
2022/10/31 11:28:30;;;;;;;5.40;4.93;;;25.50;65.70;;;;;;5045583;28;20470;-86
2022/10/31 11:30:59;;;;;;;5.70;5.20;;;25.50;65.60;;;;;;5038334;28;20535;-91
2022/10/31 11:33:33;;;;;;;5.80;5.30;;;25.50;65.50;;;;;;5034987;28;20463;-85
2022/10/31 11:36:02;;;;;;;5.40;5.00;;;25.50;65.30;;;;;;5033979;28;21766;-89
2022/10/31 11:38:36;;;;;;;6.27;5.77;;;25.60;65.20;;;;;;5039127;28;20449;-85
2022/10/31 11:41:12;;;;;;;10.10;5.83;;;25.60;65.10;;;;;;5034163;28;20479;-89
2022/10/31 11:43:49;;;;;;;5.67;5.20;;;25.60;65.10;;;;;;5038060;28;20462;-84
2022/10/31 11:46:22;;;;;;;5.27;4.87;;;25.60;65.00;;;;;;5044544;28;20482;-89
2022/10/31 11:48:53;;;;;;;7.77;4.83;;;25.70;64.90;;;;;;5050778;28;20456;-83
2022/10/31 11:51:23;;;;;;;5.10;4.70;;;25.70;64.80;;;;;;5047812;28;20535;-80
2022/10/31 11:53:53;;;;;;;4.60;4.30;;;25.80;64.70;;;;;;5039845;28;20461;-88
2022/10/31 11:56:39;;;;;;;6.93;6.33;;;25.80;64.50;;;;;;5043813;28;20448;-84
2022/10/31 11:59:26;;;;;;;5.80;5.03;;;25.90;64.20;;;;;;5038075;28;20527;-75
2022/10/31 12:01:56;;;;;;;14.47;12.50;;;25.90;64.10;;;;;;5036541;28;20477;-74
2022/10/31 12:04:39;;;;;;;14.43;13.13;;;25.80;63.20;;;;;;5030775;28;20490;-80
2022/10/31 12:07:07;;;;;;;15.33;13.93;;;25.70;62.60;;;;;;5040095;28;20554;-80
2022/10/31 12:09:37;;;;;;;15.03;12.90;;;25.50;63.20;;;;;;5041117;28;20462;-76
2022/10/31 12:12:20;;;;;;;15.87;13.50;;;25.40;63.30;;;;;;5040180;28;20463;-76
2022/10/31 12:14:58;;;;;;;12.23;11.00;;;25.30;62.50;;;;;;5036410;28;20462;-75
2022/10/31 12:17:34;;;;;;;14.40;11.80;;;25.30;63.70;;;;;;5034484;28;20467;-78
2022/10/31 12:20:17;;;;;;;14.70;9.93;;;25.20;63.20;;;;;;5045186;28;20991;-77
2022/10/31 12:22:53;;;;;;;14.73;9.80;;;25.20;63.00;;;;;;5041275;28;20452;-78
2022/10/31 12:25:35;;;;;;;10.00;9.00;;;25.10;63.30;;;;;;5044718;28;20450;-75
2022/10/31 12:28:34;;;;;;;11.63;10.53;;;25.10;63.70;;;;;;5038571;28;20569;-76
2022/10/31 12:31:19;;;;;;;11.10;10.07;;;25.10;63.50;;;;;;5046041;28;20540;-76
2022/10/31 12:33:56;;;;;;;12.20;10.80;;;25.00;63.80;;;;;;5043072;28;20542;-76
2022/10/31 12:36:41;;;;;;;14.13;12.83;;;25.00;63.60;;;;;;5036887;28;20462;-75
2022/10/31 12:39:26;;;;;;;14.50;13.00;;;24.80;63.30;;;;;;5026957;28;20844;-76
2022/10/31 12:41:58;;;;;;;14.50;12.37;;;24.50;64.10;;;;;;5015038;28;20807;-76
2022/10/31 12:44:55;;;;;;;18.37;13.83;;;24.30;64.50;;;;;;5039864;28;20791;-77
2022/10/31 12:47:43;;;;;;;15.80;13.40;;;24.00;65.40;;;;;;5014949;28;20463;-76
2022/10/31 12:50:26;;;;;;;14.50;12.00;;;23.70;66.40;;;;;;5033868;28;20802;-76
2022/10/31 12:53:07;;;;;;;16.00;13.57;;;23.50;66.80;;;;;;5049244;28;20483;-76
2022/10/31 12:55:44;;;;;;;16.63;12.73;;;23.30;67.40;;;;;;5032445;28;20542;-76
2022/10/31 12:58:30;;;;;;;14.10;12.67;;;23.30;67.20;;;;;;5037069;28;20548;-79
2022/10/31 13:01:08;;;;;;;17.07;13.60;;;23.10;67.40;;;;;;5034945;28;20480;-76
2022/10/31 13:03:46;;;;;;;13.40;11.57;;;23.00;67.90;;;;;;5033220;28;20481;-78
2022/10/31 13:06:30;;;;;;;11.97;10.47;;;23.00;68.10;;;;;;5038791;28;20901;-79
2022/10/31 13:09:02;;;;;;;6.93;6.10;;;23.10;67.80;;;;;;5038253;28;20551;-78
2022/10/31 13:11:34;;;;;;;16.60;8.47;;;23.30;67.80;;;;;;5042491;28;20858;-77
2022/10/31 13:14:07;;;;;;;13.03;11.73;;;23.50;67.20;;;;;;5029568;28;20461;-78
2022/10/31 13:16:40;;;;;;;12.67;9.63;;;23.60;67.00;;;;;;5030728;28;20455;-79
2022/10/31 13:19:17;;;;;;;13.03;10.80;;;23.70;66.60;;;;;;5036435;28;20467;-79
2022/10/31 13:21:55;;;;;;;12.00;8.37;;;23.70;66.60;;;;;;5029629;28;20473;-79
2022/10/31 13:24:31;;;;;;;7.80;6.47;;;23.80;66.70;;;;;;5032534;28;20462;-79
2022/10/31 13:27:03;;;;;;;9.07;6.87;;;23.80;66.40;;;;;;5041432;28;20455;-81
2022/10/31 13:29:34;;;;;;;13.13;11.73;;;23.90;66.20;;;;;;5024325;28;20453;-79
2022/10/31 13:32:07;;;;;;;17.90;12.67;;;23.90;66.30;;;;;;5040991;28;20492;-78